Terminal Aerodrome Forecast
Issued by NWS Missoula, MT

Home | Current Version | Previous Version | Text Only | Print | Product List | Glossary On
Versions: 1 2 3 4 5 6 7 8 9 10 11 12 13
022
FTUS45 KMSO 102337
TAFGPI
TAF
KGPI 102337Z 1100/1124 VRB03KT P6SM VCSH BKN015 OVC035
      TEMPO 1104/1108 3SM -SN BKN015 OVC030
     FM110800 VRB03KT 2SM -SN SCT010 OVC015
     FM111500 VRB03KT 4SM -SN BKN020
     FM111800 18010G15KT P6SM VCSH SCT030=

USA.gov is the U.S. government's official web portal to all federal, state and local government web resources and services.